Time;durP1;ratioP1;P1;durP2;ratioP2;P2;SDS_P1;SDS_P2;PMS_P1;PMS_P2;Temp;Humidity;BMP_temperature;BMP_pressure;BME280_temperature;BME280_humidity;BME280_pressure;Samples;Min_cycle;Max_cycle;Signal;HPM_P1;HPM_P2
2022/05/10 00:00:15;;;;;;;36.10;33.80;;;15.10;82.20;;;;;;5135583;27;20541;-78
2022/05/10 00:02:43;;;;;;;35.17;32.87;;;15.10;82.20;;;;;;5132335;27;20447;-78
2022/05/10 00:05:11;;;;;;;36.10;33.80;;;15.10;82.10;;;;;;5146381;27;20478;-78
2022/05/10 00:07:40;;;;;;;36.80;34.50;;;15.10;82.10;;;;;;5136744;27;20458;-79
2022/05/10 00:10:09;;;;;;;36.17;33.97;;;15.00;82.40;;;;;;5129129;27;20458;-78
2022/05/10 00:12:36;;;;;;;36.37;33.97;;;14.90;82.70;;;;;;5144714;27;20461;-78
2022/05/10 00:15:06;;;;;;;36.70;34.20;;;14.90;82.80;;;;;;5137862;27;21208;-78
2022/05/10 00:17:40;;;;;;;35.30;33.13;;;14.90;82.90;;;;;;5145744;27;21042;-78
2022/05/10 00:20:10;;;;;;;35.03;32.83;;;14.90;83.00;;;;;;5153337;27;20458;-78
2022/05/10 00:22:37;;;;;;;36.13;33.83;;;14.80;83.00;;;;;;5154823;27;20463;-78
2022/05/10 00:25:07;;;;;;;36.37;33.50;;;14.80;83.20;;;;;;5146855;27;20600;-79
2022/05/10 00:27:33;;;;;;;36.63;33.83;;;14.80;83.20;;;;;;5141835;27;20455;-79
2022/05/10 00:30:00;;;;;;;37.40;35.00;;;14.80;83.20;;;;;;5141704;27;20457;-79
2022/05/10 00:32:32;;;;;;;35.43;33.30;;;14.80;83.20;;;;;;5135073;27;20452;-78
2022/05/10 00:34:59;;;;;;;35.60;33.30;;;14.80;83.20;;;;;;5136292;27;20944;-78
2022/05/10 00:37:26;;;;;;;35.53;33.40;;;14.80;83.30;;;;;;5144297;27;20549;-78
2022/05/10 00:39:53;;;;;;;35.20;33.07;;;14.80;83.50;;;;;;5146668;27;20461;-78
2022/05/10 00:42:27;;;;;;;35.93;33.77;;;14.80;83.50;;;;;;5147569;27;20539;-78
2022/05/10 00:44:59;;;;;;;34.77;32.53;;;14.70;83.50;;;;;;5138954;27;20479;-78
2022/05/10 00:47:37;;;;;;;36.27;34.07;;;14.70;83.60;;;;;;5135228;27;20471;-78
2022/05/10 00:50:10;;;;;;;36.70;34.20;;;14.70;83.70;;;;;;5135247;27;20907;-78
2022/05/10 00:52:48;;;;;;;35.80;33.40;;;14.70;83.80;;;;;;5142913;27;20447;-78
2022/05/10 00:55:20;;;;;;;35.10;32.80;;;14.70;83.70;;;;;;5131141;27;20467;-78
2022/05/10 00:57:51;;;;;;;34.67;32.57;;;14.70;83.60;;;;;;5133790;27;20452;-78
2022/05/10 01:00:21;;;;;;;35.67;33.30;;;14.60;84.00;;;;;;5135824;27;20447;-79
2022/05/10 01:03:01;;;;;;;36.00;33.60;;;14.50;84.10;;;;;;5131341;27;20531;-78
2022/05/10 01:05:33;;;;;;;35.10;32.90;;;14.50;84.40;;;;;;5133447;27;20482;-78
2022/05/10 01:08:07;;;;;;;36.80;34.50;;;14.50;84.40;;;;;;5130307;27;20511;-78
2022/05/10 01:10:43;;;;;;;36.20;33.93;;;14.40;84.60;;;;;;5138448;27;20813;-78
2022/05/10 01:13:18;;;;;;;35.73;33.53;;;14.40;84.70;;;;;;5134380;27;20490;-78
2022/05/10 01:15:53;;;;;;;36.10;33.80;;;14.40;84.50;;;;;;5131549;27;20451;-78
2022/05/10 01:18:23;;;;;;;34.90;32.60;;;14.50;84.40;;;;;;5137298;27;20462;-78
2022/05/10 01:20:54;;;;;;;36.03;33.73;;;14.40;84.50;;;;;;5142017;27;20542;-78
2022/05/10 01:23:50;;;;;;;36.63;34.03;;;14.40;84.60;;;;;;5137793;27;20470;-78
2022/05/10 01:26:25;;;;;;;35.07;32.97;;;14.40;84.70;;;;;;5147814;27;20478;-78
2022/05/10 01:28:58;;;;;;;37.43;34.93;;;14.30;85.00;;;;;;5146622;27;20457;-78
2022/05/10 01:31:44;;;;;;;36.27;33.90;;;14.30;85.10;;;;;;5143673;27;20457;-78
2022/05/10 01:34:32;;;;;;;37.87;35.53;;;14.20;85.30;;;;;;5129291;27;20478;-79
2022/05/10 01:37:16;;;;;;;37.73;35.33;;;14.20;85.20;;;;;;5133997;27;20537;-79
2022/05/10 01:46:03;;;;;;;37.03;34.37;;;14.20;85.00;;;;;;5142181;27;20478;-78
2022/05/10 01:48:35;;;;;;;36.67;34.10;;;14.20;85.10;;;;;;5150855;27;20472;-78
2022/05/10 01:51:08;;;;;;;35.63;33.43;;;14.20;85.20;;;;;;5152061;27;20446;-78
2022/05/10 01:53:37;;;;;;;35.63;33.47;;;14.20;85.00;;;;;;5137488;27;20563;-78
2022/05/10 01:56:06;;;;;;;35.60;33.47;;;14.20;84.90;;;;;;5144224;27;21284;-78
2022/05/10 01:58:36;;;;;;;35.33;33.23;;;14.10;85.20;;;;;;5134263;27;20455;-78
2022/05/10 02:01:07;;;;;;;37.10;34.70;;;14.10;85.10;;;;;;5139560;27;20546;-78
2022/05/10 02:03:39;;;;;;;37.77;35.13;;;14.10;85.20;;;;;;5134791;27;20481;-78
2022/05/10 02:06:10;;;;;;;35.33;33.23;;;14.00;85.40;;;;;;5145142;27;20482;-78
2022/05/10 02:08:46;;;;;;;36.07;33.80;;;14.00;85.40;;;;;;5140248;27;20912;-78
2022/05/10 02:11:16;;;;;;;34.90;32.70;;;13.90;85.50;;;;;;5138242;27;20486;-78
2022/05/10 02:13:47;;;;;;;34.30;32.20;;;13.90;85.50;;;;;;5141745;27;20562;-78
2022/05/10 02:16:23;;;;;;;34.33;32.07;;;13.90;85.50;;;;;;5150033;27;20457;-78
2022/05/10 02:18:56;;;;;;;35.53;33.23;;;13.80;85.60;;;;;;5151682;27;20577;-78
2022/05/10 02:21:28;;;;;;;35.43;33.23;;;13.80;85.70;;;;;;5154420;27;20812;-78
2022/05/10 02:24:01;;;;;;;33.90;31.80;;;13.80;85.60;;;;;;5145685;27;20489;-78
2022/05/10 02:26:32;;;;;;;35.20;33.00;;;13.80;85.70;;;;;;5144580;27;20909;-78
2022/05/10 02:29:06;;;;;;;35.43;33.30;;;13.80;85.80;;;;;;5135902;27;20531;-78
2022/05/10 02:33:06;;;;;;;36.30;33.97;;;13.80;85.90;;;;;;5146414;27;20454;-78
2022/05/10 02:34:28;;;;;;;36.87;34.47;;;13.80;86.00;;;;;;5131086;27;20459;-78
2022/05/10 02:36:54;;;;;;;36.30;33.70;;;13.80;86.00;;;;;;5143071;27;20489;-78
2022/05/10 02:39:21;;;;;;;37.20;34.80;;;13.80;85.90;;;;;;5144839;27;20851;-79
2022/05/10 02:41:48;;;;;;;35.27;32.90;;;13.80;85.80;;;;;;5159027;27;20552;-78
2022/05/10 02:44:15;;;;;;;35.70;33.20;;;13.80;85.70;;;;;;5139533;27;20522;-78
2022/05/10 02:46:44;;;;;;;36.90;34.60;;;13.80;85.70;;;;;;5150500;27;20953;-78
2022/05/10 02:49:11;;;;;;;34.90;32.80;;;13.80;85.80;;;;;;5142591;27;20495;-78
2022/05/10 02:51:39;;;;;;;36.87;34.47;;;13.80;85.70;;;;;;5135558;27;20539;-78
2022/05/10 02:54:06;;;;;;;35.77;33.47;;;13.70;85.70;;;;;;5132418;27;20770;-78
2022/05/10 02:56:36;;;;;;;34.13;32.10;;;13.70;85.70;;;;;;5137351;27;20457;-78
2022/05/10 02:59:06;;;;;;;35.67;33.43;;;13.80;85.60;;;;;;5149094;27;20458;-78
2022/05/10 03:01:37;;;;;;;35.13;32.83;;;13.70;85.60;;;;;;5143853;27;20769;-78
2022/05/10 03:04:08;;;;;;;39.70;36.90;;;13.70;85.70;;;;;;5131321;27;20475;-78
2022/05/10 03:06:39;;;;;;;36.10;33.70;;;13.70;85.70;;;;;;5140750;27;20474;-78
2022/05/10 03:09:07;;;;;;;37.70;35.00;;;13.70;85.70;;;;;;5143949;27;20479;-78
2022/05/10 03:11:36;;;;;;;37.07;34.77;;;13.60;85.90;;;;;;5145356;27;21047;-78
2022/05/10 03:14:04;;;;;;;35.87;33.17;;;13.70;85.80;;;;;;5145921;27;20839;-78
2022/05/10 03:16:31;;;;;;;36.37;34.00;;;13.70;85.70;;;;;;5140660;27;20459;-78
2022/05/10 03:18:58;;;;;;;39.60;37.10;;;13.80;85.40;;;;;;5147504;27;20535;-78
2022/05/10 03:21:26;;;;;;;37.80;35.17;;;13.80;85.20;;;;;;5130134;27;20560;-78
2022/05/10 03:23:54;;;;;;;36.07;33.80;;;13.80;85.00;;;;;;5149133;27;20485;-78
2022/05/10 03:26:25;;;;;;;38.90;36.50;;;13.70;85.40;;;;;;5148483;27;20475;-78
2022/05/10 03:28:52;;;;;;;40.10;37.47;;;13.70;85.60;;;;;;5137422;27;20454;-78
2022/05/10 03:31:22;;;;;;;36.43;34.03;;;13.70;85.70;;;;;;5136264;27;20489;-78
2022/05/10 03:34:53;;;;;;;35.77;33.47;;;13.60;85.90;;;;;;5135529;27;20768;-78
2022/05/10 03:36:39;;;;;;;37.20;34.13;;;13.60;85.90;;;;;;5146072;27;20494;-78
2022/05/10 03:39:07;;;;;;;37.23;34.70;;;13.60;86.00;;;;;;5141199;27;20444;-78
2022/05/10 03:41:34;;;;;;;38.80;35.87;;;13.60;85.80;;;;;;5147488;27;20452;-78
2022/05/10 03:44:01;;;;;;;36.47;34.27;;;13.60;85.90;;;;;;5130795;27;20984;-79
2022/05/10 03:46:28;;;;;;;38.73;36.30;;;13.60;85.90;;;;;;5132427;27;20475;-79
2022/05/10 03:48:55;;;;;;;38.30;35.80;;;13.60;85.80;;;;;;5141561;27;20979;-79
2022/05/10 03:51:22;;;;;;;35.70;33.30;;;13.60;85.80;;;;;;5134464;27;20455;-78
2022/05/10 03:53:50;;;;;;;38.00;35.47;;;13.60;85.80;;;;;;5148666;27;20479;-77
2022/05/10 03:56:17;;;;;;;36.67;34.37;;;13.60;85.80;;;;;;5141775;27;20567;-75
2022/05/10 03:58:44;;;;;;;37.17;34.77;;;13.60;85.80;;;;;;5145860;27;20913;-74
2022/05/10 04:01:11;;;;;;;35.70;33.20;;;13.70;85.70;;;;;;5130447;27;20534;-77
2022/05/10 04:03:38;;;;;;;37.77;35.43;;;13.70;85.60;;;;;;5129974;27;20499;-77
2022/05/10 04:06:07;;;;;;;36.90;34.40;;;13.70;85.50;;;;;;5148361;27;20549;-77
2022/05/10 04:08:35;;;;;;;36.40;33.90;;;13.80;85.30;;;;;;5144577;27;20460;-78
2022/05/10 04:11:05;;;;;;;38.63;36.03;;;13.80;85.20;;;;;;5143542;27;20466;-79
2022/05/10 04:13:32;;;;;;;36.37;33.97;;;13.90;84.80;;;;;;5132915;27;20451;-80
2022/05/10 04:16:00;;;;;;;39.50;37.20;;;13.80;84.90;;;;;;5146962;27;20538;-78
2022/05/10 04:18:27;;;;;;;37.97;35.57;;;13.90;84.70;;;;;;5150630;27;20573;-79
2022/05/10 04:20:54;;;;;;;37.90;35.50;;;14.00;84.50;;;;;;5136243;27;21456;-78
2022/05/10 04:23:21;;;;;;;35.77;33.33;;;14.00;84.40;;;;;;5140890;27;20456;-78
2022/05/10 04:25:48;;;;;;;35.40;33.20;;;14.10;84.20;;;;;;5143118;27;20554;-79
2022/05/10 04:28:17;;;;;;;35.37;32.97;;;14.20;83.70;;;;;;5151449;27;20455;-79
2022/05/10 04:30:44;;;;;;;37.20;34.67;;;14.20;83.70;;;;;;5143220;27;20501;-79
2022/05/10 04:33:11;;;;;;;40.60;38.00;;;14.30;83.50;;;;;;5150291;27;20491;-79
2022/05/10 04:35:38;;;;;;;35.65;33.15;;;14.30;83.70;;;;;;5147294;27;20486;-78
2022/05/10 04:38:07;;;;;;;36.70;34.40;;;14.50;83.10;;;;;;5137622;27;20202;-78
2022/05/10 04:43:20;;;;;;;37.30;34.90;;;14.90;82.00;;;;;;5145839;27;20805;-78
2022/05/10 04:45:47;;;;;;;36.90;34.60;;;14.80;81.60;;;;;;5143664;27;20561;-80
2022/05/10 04:48:14;;;;;;;36.73;34.33;;;14.90;81.60;;;;;;5153892;27;20481;-80
2022/05/10 04:50:41;;;;;;;36.97;34.57;;;15.00;81.30;;;;;;5136955;27;20452;-79
2022/05/10 04:53:10;;;;;;;38.40;36.00;;;15.00;81.10;;;;;;5141404;27;20463;-80
2022/05/10 04:55:37;;;;;;;39.43;36.53;;;15.20;80.50;;;;;;5146958;27;20471;-79
2022/05/10 04:58:04;;;;;;;43.07;39.93;;;15.30;80.10;;;;;;5136429;27;20483;-79
2022/05/10 05:00:32;;;;;;;37.93;35.30;;;15.30;79.80;;;;;;5136317;27;20462;-79
2022/05/10 05:02:59;;;;;;;40.50;38.20;;;15.50;79.60;;;;;;5137621;27;20568;-81
2022/05/10 05:05:26;;;;;;;35.27;33.07;;;15.60;79.10;;;;;;5147705;27;20864;-81
2022/05/10 05:07:53;;;;;;;41.10;38.50;;;15.70;78.60;;;;;;5141454;27;20546;-80
2022/05/10 05:10:20;;;;;;;35.97;33.40;;;15.80;78.50;;;;;;5142394;27;20470;-77
2022/05/10 05:12:47;;;;;;;39.03;36.33;;;15.90;78.00;;;;;;5144207;27;20467;-76
2022/05/10 05:15:14;;;;;;;40.33;37.43;;;16.00;77.90;;;;;;5146440;27;20556;-80
2022/05/10 05:17:43;;;;;;;39.63;37.03;;;16.00;77.70;;;;;;5137337;27;20538;-80
2022/05/10 05:20:11;;;;;;;37.23;34.60;;;16.10;77.30;;;;;;5146064;27;20464;-79
2022/05/10 05:22:38;;;;;;;35.73;33.53;;;16.20;77.00;;;;;;5152804;27;20797;-78
2022/05/10 05:25:06;;;;;;;39.10;36.20;;;16.30;76.80;;;;;;5154348;27;20964;-78
2022/05/10 05:27:33;;;;;;;35.07;32.87;;;16.50;76.60;;;;;;5142521;27;20484;-79
2022/05/10 05:30:01;;;;;;;39.73;37.00;;;16.60;76.10;;;;;;5148927;27;20541;-79
2022/05/10 05:32:30;;;;;;;37.47;35.07;;;16.80;75.40;;;;;;5154693;27;20478;-79
2022/05/10 05:34:59;;;;;;;35.13;32.90;;;16.90;75.20;;;;;;5148640;27;20471;-80
2022/05/10 05:37:35;;;;;;;35.20;32.90;;;17.00;75.10;;;;;;5142064;27;20530;-82
2022/05/10 05:40:04;;;;;;;36.00;33.80;;;17.10;75.00;;;;;;5144079;27;20532;-80
2022/05/10 05:42:34;;;;;;;36.77;34.33;;;17.30;74.90;;;;;;5151383;27;20518;-81
2022/05/10 05:45:01;;;;;;;36.90;34.60;;;17.40;74.30;;;;;;5154023;27;20585;-80
2022/05/10 05:47:28;;;;;;;37.13;34.63;;;17.60;74.00;;;;;;5150915;27;20837;-79
2022/05/10 05:49:56;;;;;;;37.37;34.90;;;17.70;73.60;;;;;;5143766;27;20542;-79
2022/05/10 05:52:25;;;;;;;37.73;35.43;;;17.80;73.40;;;;;;5148972;27;20459;-79
2022/05/10 05:54:53;;;;;;;38.83;36.33;;;17.90;73.20;;;;;;5145815;27;20490;-79
2022/05/10 05:57:20;;;;;;;35.37;33.10;;;17.90;73.20;;;;;;5149007;27;21093;-79
2022/05/10 05:59:48;;;;;;;38.57;35.77;;;18.10;72.90;;;;;;5146626;27;20465;-79
2022/05/10 06:02:18;;;;;;;39.90;37.50;;;18.20;72.70;;;;;;5150610;27;20453;-79
2022/05/10 06:04:45;;;;;;;35.87;33.60;;;18.40;72.60;;;;;;5146583;27;20937;-79
2022/05/10 06:07:13;;;;;;;37.17;34.70;;;18.40;72.00;;;;;;5143429;27;20562;-79
2022/05/10 06:09:43;;;;;;;38.93;36.43;;;18.60;71.70;;;;;;5147449;27;20508;-79
2022/05/10 06:12:12;;;;;;;40.43;37.70;;;18.70;71.30;;;;;;5149068;27;20578;-79
2022/05/10 06:14:40;;;;;;;37.67;35.00;;;18.80;70.90;;;;;;5147525;27;21194;-80
2022/05/10 06:17:09;;;;;;;37.33;34.87;;;19.00;70.80;;;;;;5146529;27;20530;-78
2022/05/10 06:19:38;;;;;;;37.60;35.00;;;19.10;70.60;;;;;;5143039;27;20879;-78
2022/05/10 06:22:06;;;;;;;36.70;34.40;;;19.20;70.30;;;;;;5142535;27;20546;-78
2022/05/10 06:24:33;;;;;;;38.03;35.63;;;19.30;70.10;;;;;;5150215;27;21239;-78
2022/05/10 06:27:04;;;;;;;36.93;34.53;;;19.50;69.70;;;;;;5144068;27;20512;-78
2022/05/10 06:29:31;;;;;;;39.90;37.10;;;19.60;69.40;;;;;;5142090;27;20474;-76
2022/05/10 06:31:59;;;;;;;37.13;34.77;;;19.70;69.30;;;;;;5135297;27;20448;-77
2022/05/10 06:34:25;;;;;;;37.20;34.53;;;19.80;68.90;;;;;;5144255;27;20479;-76
2022/05/10 06:36:52;;;;;;;37.53;35.23;;;20.00;68.20;;;;;;5141649;27;20467;-78
2022/05/10 06:39:19;;;;;;;38.90;35.87;;;20.10;67.50;;;;;;5145375;27;21003;-75
2022/05/10 06:41:46;;;;;;;37.38;34.78;;;20.30;66.90;;;;;;5149362;27;20543;-77
2022/05/10 06:44:14;;;;;;;37.03;34.53;;;20.70;65.70;;;;;;5148697;27;20760;-76
2022/05/10 06:46:42;;;;;;;39.40;36.90;;;20.70;65.50;;;;;;5144768;27;20609;-77
2022/05/10 06:49:09;;;;;;;40.23;37.50;;;20.90;65.30;;;;;;5145035;27;20455;-78
2022/05/10 06:51:40;;;;;;;37.17;34.70;;;20.90;65.00;;;;;;5144893;27;20467;-75
2022/05/10 06:54:06;;;;;;;40.20;36.80;;;21.10;64.90;;;;;;5145987;27;20474;-75
2022/05/10 06:56:34;;;;;;;37.80;35.17;;;21.20;64.50;;;;;;5136143;27;20462;-76
2022/05/10 06:59:01;;;;;;;36.90;34.30;;;21.30;64.20;;;;;;5141733;27;20459;-75
2022/05/10 07:01:32;;;;;;;37.80;35.00;;;21.40;64.00;;;;;;5144874;27;20465;-75
2022/05/10 07:04:01;;;;;;;37.07;34.53;;;21.50;63.70;;;;;;5141478;27;20530;-75
2022/05/10 07:06:30;;;;;;;37.23;34.87;;;21.70;63.10;;;;;;5142707;27;20475;-76
2022/05/10 07:08:58;;;;;;;35.80;33.43;;;21.70;62.90;;;;;;5146049;27;20511;-75
2022/05/10 07:11:25;;;;;;;37.10;34.80;;;21.80;62.60;;;;;;5145204;27;20465;-76
2022/05/10 07:13:52;;;;;;;36.90;34.50;;;21.90;62.40;;;;;;5148663;27;20491;-75
2022/05/10 07:16:19;;;;;;;35.87;33.37;;;22.00;62.20;;;;;;5139958;27;20448;-75
2022/05/10 07:18:47;;;;;;;38.73;36.23;;;22.00;61.80;;;;;;5143585;27;20487;-76
2022/05/10 07:21:14;;;;;;;35.43;33.33;;;22.10;61.80;;;;;;5148510;27;20442;-76
2022/05/10 07:23:41;;;;;;;36.93;34.40;;;22.10;61.80;;;;;;5139379;27;20486;-76
2022/05/10 07:26:08;;;;;;;37.13;34.80;;;22.20;61.60;;;;;;5141372;27;20515;-76
2022/05/10 07:28:35;;;;;;;36.13;33.93;;;22.30;61.00;;;;;;5147797;27;20550;-75
2022/05/10 07:31:02;;;;;;;35.00;33.00;;;22.30;61.20;;;;;;5145006;27;20919;-75
2022/05/10 07:33:29;;;;;;;36.00;33.80;;;22.40;60.90;;;;;;5134310;27;20484;-75
2022/05/10 07:38:43;;;;;;;35.80;33.40;;;22.50;60.50;;;;;;5148636;27;20465;-75
2022/05/10 07:41:11;;;;;;;35.03;32.93;;;22.60;60.50;;;;;;5148850;27;20459;-75
2022/05/10 07:43:40;;;;;;;37.37;34.67;;;22.70;60.00;;;;;;5148534;27;20530;-76
2022/05/10 07:46:08;;;;;;;35.00;32.80;;;22.80;59.50;;;;;;5144069;27;20525;-76
2022/05/10 07:48:35;;;;;;;34.40;32.30;;;22.80;59.70;;;;;;5149241;27;20451;-75
2022/05/10 07:51:04;;;;;;;33.30;31.30;;;22.90;59.30;;;;;;5145153;27;20457;-77
2022/05/10 07:53:31;;;;;;;34.13;32.03;;;23.00;59.20;;;;;;5145773;27;21343;-74
2022/05/10 07:56:01;;;;;;;33.20;31.20;;;23.10;58.90;;;;;;5147092;27;20463;-75
2022/05/10 07:58:28;;;;;;;33.67;31.60;;;23.10;58.50;;;;;;5144435;27;20578;-76
2022/05/10 08:00:56;;;;;;;35.83;33.63;;;23.20;58.20;;;;;;5138105;27;20590;-75
2022/05/10 08:03:28;;;;;;;34.83;32.50;;;23.30;57.60;;;;;;5144614;27;20462;-75
2022/05/10 08:05:56;;;;;;;33.20;31.20;;;23.30;57.60;;;;;;5143888;27;20461;-75
2022/05/10 08:08:25;;;;;;;34.60;32.43;;;23.40;57.70;;;;;;5146369;27;20479;-75
2022/05/10 08:10:57;;;;;;;34.23;32.20;;;23.50;57.50;;;;;;5139701;27;20528;-75
2022/05/10 08:13:27;;;;;;;35.90;33.50;;;23.50;57.10;;;;;;5139518;27;20448;-75
2022/05/10 08:15:55;;;;;;;35.30;33.00;;;23.50;57.30;;;;;;5143606;27;20543;-75
2022/05/10 08:18:23;;;;;;;35.57;33.27;;;23.70;57.10;;;;;;5145231;27;20447;-74
2022/05/10 08:20:52;;;;;;;34.63;32.50;;;23.60;56.90;;;;;;5142521;27;20463;-74
2022/05/10 08:23:22;;;;;;;36.60;33.23;;;23.70;56.70;;;;;;5145084;27;20491;-75
2022/05/10 08:25:50;;;;;;;36.10;33.10;;;23.80;56.00;;;;;;5142863;27;20459;-75
2022/05/10 08:28:17;;;;;;;33.83;31.53;;;23.80;56.00;;;;;;5136761;27;20951;-75
2022/05/10 08:30:47;;;;;;;34.80;32.73;;;23.90;56.10;;;;;;5138747;27;20456;-74
2022/05/10 08:33:17;;;;;;;37.50;34.60;;;23.90;56.40;;;;;;5140392;27;20527;-74
2022/05/10 08:35:44;;;;;;;36.97;34.57;;;24.00;56.40;;;;;;5135125;27;20470;-73
2022/05/10 08:38:11;;;;;;;35.43;33.33;;;24.00;55.90;;;;;;5146878;27;20578;-74
2022/05/10 08:40:43;;;;;;;33.77;31.77;;;24.20;55.70;;;;;;5143458;27;20899;-74
2022/05/10 08:43:19;;;;;;;36.47;34.20;;;24.20;55.30;;;;;;5130042;27;20460;-74
2022/05/10 08:45:46;;;;;;;36.57;34.27;;;24.30;55.20;;;;;;5130588;27;20547;-74
2022/05/10 08:48:13;;;;;;;35.20;33.10;;;24.20;55.30;;;;;;5130718;27;20476;-73
2022/05/10 08:50:45;;;;;;;34.07;31.67;;;24.30;55.50;;;;;;5129721;27;20949;-74
2022/05/10 08:53:13;;;;;;;34.37;32.17;;;24.40;55.10;;;;;;5136149;27;20501;-74
2022/05/10 08:55:47;;;;;;;37.10;34.90;;;24.50;54.40;;;;;;5147584;27;20458;-73
2022/05/10 08:58:49;;;;;;;34.97;32.77;;;24.70;54.50;;;;;;5150743;27;20478;-73
2022/05/10 09:01:21;;;;;;;38.50;36.10;;;24.90;53.90;;;;;;5144490;27;20460;-73
2022/05/10 09:03:57;;;;;;;34.53;32.43;;;25.00;53.80;;;;;;5130668;27;20466;-73
2022/05/10 09:06:34;;;;;;;36.50;34.20;;;25.10;53.30;;;;;;5131627;27;20560;-74
2022/05/10 09:09:16;;;;;;;38.40;36.10;;;25.10;53.60;;;;;;5129473;27;20537;-73
2022/05/10 09:11:51;;;;;;;35.30;32.87;;;25.30;53.00;;;;;;5139236;27;20455;-73
2022/05/10 09:14:25;;;;;;;37.27;35.07;;;25.50;52.30;;;;;;5148322;27;20969;-74
2022/05/10 09:16:53;;;;;;;37.70;35.50;;;25.50;52.30;;;;;;5147674;27;20467;-73
2022/05/10 09:19:20;;;;;;;36.83;34.67;;;25.70;52.10;;;;;;5139836;27;20561;-73
2022/05/10 09:21:54;;;;;;;37.63;35.37;;;25.80;51.60;;;;;;5140983;27;20462;-74
2022/05/10 09:24:29;;;;;;;37.70;35.30;;;25.90;50.40;;;;;;5129433;28;20484;-73
2022/05/10 09:26:59;;;;;;;35.80;33.73;;;26.10;50.00;;;;;;5129437;27;20477;-73
2022/05/10 09:29:33;;;;;;;36.70;34.47;;;26.20;49.70;;;;;;5131453;27;20475;-74
2022/05/10 09:35:06;;;;;;;34.30;32.30;;;26.10;50.40;;;;;;5129584;28;20919;-74
2022/05/10 09:37:37;;;;;;;37.90;35.30;;;26.20;49.60;;;;;;5129960;28;20444;-74
2022/05/10 09:40:10;;;;;;;34.83;32.83;;;26.40;48.50;;;;;;5129774;27;20534;-74
2022/05/10 09:42:39;;;;;;;36.13;33.90;;;26.50;48.80;;;;;;5129071;27;20455;-74
2022/05/10 09:45:13;;;;;;;36.30;34.00;;;26.30;49.10;;;;;;5140001;27;20962;-74
2022/05/10 09:47:41;;;;;;;36.50;34.40;;;26.30;49.40;;;;;;5150072;27;20476;-74
2022/05/10 09:50:15;;;;;;;37.40;35.10;;;26.40;49.30;;;;;;5149800;27;20865;-74
2022/05/10 09:52:42;;;;;;;34.10;31.80;;;26.40;47.80;;;;;;5143309;27;20468;-75
2022/05/10 09:55:16;;;;;;;34.97;32.77;;;26.30;47.80;;;;;;5129456;27;20485;-74
2022/05/10 09:57:43;;;;;;;36.03;33.97;;;26.40;47.80;;;;;;5129767;28;20457;-74
2022/05/10 10:00:15;;;;;;;36.40;34.20;;;26.50;46.80;;;;;;5128462;28;20506;-75
2022/05/10 10:02:43;;;;;;;36.60;34.47;;;26.70;47.20;;;;;;5129699;28;20461;-74
2022/05/10 10:05:30;;;;;;;35.73;33.53;;;26.90;47.50;;;;;;5129294;28;20594;-74
2022/05/10 10:07:59;;;;;;;38.10;35.40;;;27.00;46.90;;;;;;5136610;27;20504;-74
2022/05/10 10:10:29;;;;;;;38.63;35.90;;;26.90;47.40;;;;;;5152918;27;20450;-74
2022/05/10 10:12:57;;;;;;;36.07;33.57;;;26.90;47.30;;;;;;5133188;27;20956;-74
2022/05/10 10:15:31;;;;;;;37.70;35.50;;;27.00;47.00;;;;;;5132854;27;20481;-73
2022/05/10 10:18:00;;;;;;;35.70;33.57;;;27.20;46.70;;;;;;5136454;27;20529;-74
2022/05/10 10:20:34;;;;;;;33.77;31.77;;;27.30;44.30;;;;;;5153009;27;20457;-74
2022/05/10 10:23:04;;;;;;;33.23;31.20;;;27.20;43.80;;;;;;5153601;27;20548;-74
2022/05/10 10:25:36;;;;;;;34.23;32.23;;;26.90;44.70;;;;;;5153226;27;20471;-74
2022/05/10 10:28:08;;;;;;;35.50;33.30;;;26.90;44.80;;;;;;5135529;27;20968;-74
2022/05/10 10:30:40;;;;;;;33.87;31.87;;;27.20;44.70;;;;;;5140466;27;20458;-74
2022/05/10 10:33:12;;;;;;;37.60;35.37;;;27.50;44.80;;;;;;5152588;27;20462;-74
2022/05/10 10:35:46;;;;;;;33.63;31.53;;;27.80;44.60;;;;;;5139649;27;20830;-74
2022/05/10 10:38:19;;;;;;;35.87;33.57;;;28.00;43.70;;;;;;5131946;27;20582;-74
2022/05/10 10:40:55;;;;;;;35.63;33.33;;;28.20;43.20;;;;;;5131312;27;20456;-75
2022/05/10 10:43:29;;;;;;;35.40;32.93;;;28.50;42.60;;;;;;5134163;27;20592;-74
2022/05/10 10:46:04;;;;;;;36.37;34.17;;;28.90;41.80;;;;;;5133173;27;20471;-74
2022/05/10 10:48:46;;;;;;;33.77;31.70;;;29.10;41.60;;;;;;5131893;27;20535;-74
2022/05/10 10:51:15;;;;;;;33.03;31.03;;;29.40;41.60;;;;;;5131636;27;20453;-75
2022/05/10 10:53:44;;;;;;;33.60;31.50;;;29.40;40.50;;;;;;5131654;27;20487;-74
2022/05/10 10:56:43;;;;;;;32.03;30.07;;;29.20;40.50;;;;;;5132113;27;20539;-75
2022/05/10 10:59:50;;;;;;;33.00;30.83;;;29.00;40.40;;;;;;5131326;27;20456;-75
2022/05/10 11:03:01;;;;;;;33.70;31.80;;;28.80;40.70;;;;;;5124307;27;20894;-75
2022/05/10 11:06:06;;;;;;;34.40;32.40;;;28.80;41.10;;;;;;5132222;27;20468;-75
2022/05/10 11:09:02;;;;;;;34.60;32.40;;;28.70;40.30;;;;;;5094076;27;20582;-74
2022/05/10 11:11:39;;;;;;;32.87;30.80;;;28.60;41.60;;;;;;5139203;27;20964;-82
2022/05/10 11:14:20;;;;;;;33.10;31.20;;;28.50;40.90;;;;;;5135262;27;20584;-77
2022/05/10 11:16:54;;;;;;;34.60;32.60;;;28.60;41.30;;;;;;5149442;27;20468;-80
2022/05/10 11:19:45;;;;;;;31.93;30.03;;;28.70;40.70;;;;;;5140775;27;20443;-79
2022/05/10 11:22:27;;;;;;;32.97;31.00;;;28.70;40.80;;;;;;5138833;27;20797;-76
2022/05/10 11:25:02;;;;;;;33.23;31.13;;;28.80;41.30;;;;;;5152775;27;20471;-79
2022/05/10 11:27:43;;;;;;;32.87;30.80;;;28.90;40.00;;;;;;5153221;27;20462;-78
2022/05/10 11:30:15;;;;;;;33.90;31.80;;;28.90;39.80;;;;;;5149642;27;20452;-75
2022/05/10 11:32:56;;;;;;;33.30;31.40;;;29.00;40.00;;;;;;5142595;27;20466;-77
2022/05/10 11:35:44;;;;;;;34.17;31.87;;;29.20;40.00;;;;;;5140355;27;20515;-77
2022/05/10 11:38:21;;;;;;;34.27;31.57;;;29.40;40.20;;;;;;5143056;27;20450;-77
2022/05/10 11:41:06;;;;;;;33.20;31.20;;;29.50;39.40;;;;;;5145760;27;20462;-77
2022/05/10 11:44:01;;;;;;;34.23;32.03;;;29.70;38.30;;;;;;5151793;27;20551;-81
2022/05/10 11:46:57;;;;;;;34.00;31.73;;;29.80;37.80;;;;;;5146028;27;20461;-76
2022/05/10 11:49:49;;;;;;;34.17;32.17;;;29.80;37.60;;;;;;5133725;27;20490;-77
2022/05/10 11:52:45;;;;;;;35.03;32.70;;;29.60;38.00;;;;;;5144069;27;20458;-78
2022/05/10 11:55:24;;;;;;;35.00;32.60;;;29.10;38.50;;;;;;5132257;27;20481;-77
2022/05/10 11:58:07;;;;;;;34.00;31.70;;;28.70;38.90;;;;;;5148933;27;20465;-77
2022/05/10 12:00:54;;;;;;;32.60;30.50;;;28.60;39.90;;;;;;5147271;27;20471;-79
2022/05/10 12:03:55;;;;;;;36.10;34.00;;;28.30;39.30;;;;;;5135270;27;21002;-75
2022/05/10 12:06:43;;;;;;;32.80;30.60;;;28.30;39.70;;;;;;5144409;27;20967;-74
2022/05/10 12:09:17;;;;;;;32.60;30.53;;;28.30;39.80;;;;;;5130580;27;20484;-75
2022/05/10 12:11:44;;;;;;;35.93;33.93;;;28.30;39.80;;;;;;5148008;27;20814;-75
2022/05/10 12:24:06;;;;;;;32.07;30.07;;;28.00;40.00;;;;;;5146057;27;20470;-76
2022/05/10 12:26:40;;;;;;;31.37;29.20;;;27.80;40.40;;;;;;5129010;27;20483;-76
2022/05/10 12:29:28;;;;;;;33.57;31.57;;;27.80;40.50;;;;;;5136212;27;20502;-77
2022/05/10 12:31:58;;;;;;;35.23;33.03;;;27.80;40.50;;;;;;5129396;27;20460;-76
2022/05/10 12:34:47;;;;;;;33.07;30.97;;;27.60;40.50;;;;;;5132758;27;20474;-77
2022/05/10 12:37:54;;;;;;;32.10;30.10;;;27.90;40.60;;;;;;5142060;27;20447;-77
2022/05/10 12:40:34;;;;;;;30.83;29.03;;;28.20;40.50;;;;;;5141692;27;20568;-77
2022/05/10 12:43:34;;;;;;;36.53;34.33;;;28.50;40.30;;;;;;5129226;27;20460;-76
2022/05/10 12:46:10;;;;;;;32.50;30.57;;;28.80;39.70;;;;;;5130602;27;20860;-75
2022/05/10 12:48:52;;;;;;;31.93;29.83;;;29.10;38.80;;;;;;5137750;27;20477;-76
2022/05/10 12:51:34;;;;;;;33.57;31.57;;;29.30;38.50;;;;;;5147782;27;20946;-77
2022/05/10 12:54:03;;;;;;;32.27;30.27;;;29.70;38.20;;;;;;5141001;27;20486;-78
2022/05/10 12:56:32;;;;;;;32.30;30.40;;;29.90;37.50;;;;;;5148890;27;21161;-77
2022/05/10 12:59:10;;;;;;;32.57;30.67;;;30.10;37.50;;;;;;5150382;27;20876;-79
2022/05/10 13:01:40;;;;;;;32.53;30.53;;;30.30;37.30;;;;;;5147400;27;21256;-79
2022/05/10 13:04:15;;;;;;;31.83;29.93;;;30.40;37.20;;;;;;5138192;27;20476;-79
2022/05/10 13:06:54;;;;;;;31.30;29.40;;;30.50;36.90;;;;;;5147291;27;20465;-79
2022/05/10 13:09:33;;;;;;;34.50;32.30;;;30.20;36.50;;;;;;5146523;27;21416;-76
2022/05/10 13:12:07;;;;;;;35.43;33.43;;;29.40;37.60;;;;;;5138893;27;20457;-77
2022/05/10 13:14:41;;;;;;;33.00;31.00;;;29.20;38.10;;;;;;5138523;27;20509;-78
2022/05/10 13:17:09;;;;;;;32.33;30.43;;;29.20;38.50;;;;;;5147531;27;20819;-78